»·PEaware :: N727CR L71-46CA

N727CR :: L71-46CA

FLIGHT INFORMATION

Flight Status: Arrived
Operator: Privately registered:
United States
More flights under this callsign
Pilot: Anonymous 5323 (5323)
Aircraft: EMBRAER BANDEIRANTE
(E110)
More flights by this aircraft type
Origin: L71 California City Mun
United States
Destination: 46CA Rancho Vallecito
United States
More flights between these airports :: More routes between these airports
Route:
File this flight plan on PilotEdge
Remarks:
Altitude:
(Current/Filed)
13,500ft
Speed:
(Current/Filed)
200kts
Departed: 04-Jun-15 02:33 PM
Arrived: 04-Jun-15 03:30 PM
Distance/Time
Traveled:
153nm/0:57
Distance/Time
To Go:
Arrived

Flight Plot

Page will automatically refresh every two minutes.


Map Options




Map Legend


Flown Route
Filed Route
Departure Airport
Arrival Airport
Navaid (VOR, NDB)
Fix

Horizontal Profiles

Position Reports

Time Latitude Longitude Heading Altitude Ground
Speed
04-Jun-15 14:24 35.149967 -118.015730 83 2440ft 0kts
04-Jun-15 14:25 35.149967 -118.015730 83 2440ft 0kts
04-Jun-15 14:26 35.150619 -118.015156 39 2440ft 15kts
04-Jun-15 14:27 35.152138 -118.009113 74 2440ft 21kts
04-Jun-15 14:28 35.152841 -118.006799 340 2440ft 0kts
04-Jun-15 14:29 35.151752 -118.014672 259 2467ft 96kts
04-Jun-15 14:30 35.154750 -118.045294 265 4155ft 99kts
04-Jun-15 14:31 35.147284 -118.072471 225 5757ft 96kts
04-Jun-15 14:32 35.130123 -118.096922 229 7527ft 96kts
04-Jun-15 14:33 35.112379 -118.119690 215 9324ft 95kts
04-Jun-15 14:34 35.090263 -118.135438 218 10998ft 92kts
04-Jun-15 14:35 35.066392 -118.150836 221 12280ft 109kts
04-Jun-15 14:36 35.040620 -118.166043 217 13358ft 130kts
04-Jun-15 14:37 34.998526 -118.188038 211 13467ft 179kts
04-Jun-15 14:38 34.950095 -118.216518 210 13539ft 209kts
04-Jun-15 14:39 34.891599 -118.208264 164 13543ft 247kts
04-Jun-15 14:40 34.829689 -118.173701 164 13526ft 246kts
04-Jun-15 14:41 34.767588 -118.139240 164 13530ft 247kts
04-Jun-15 14:42 34.705164 -118.104706 165 13540ft 252kts
04-Jun-15 14:43 34.640676 -118.069076 164 13543ft 257kts
04-Jun-15 14:44 34.596045 -118.000650 120 13545ft 285kts
04-Jun-15 14:45 34.566481 -117.928944 125 13537ft 284kts
04-Jun-15 14:46 34.522211 -117.832617 126 13530ft 287kts
04-Jun-15 14:47 34.489525 -117.763160 127 13534ft 281kts
04-Jun-15 14:48 34.451566 -117.683423 126 13528ft 266kts
04-Jun-15 14:49 34.416344 -117.610560 124 13538ft 252kts
04-Jun-15 14:50 34.376263 -117.526548 125 13543ft 246kts
04-Jun-15 14:51 34.347474 -117.466495 125 13561ft 250kts
04-Jun-15 14:52 34.312287 -117.393257 124 13579ft 257kts
04-Jun-15 14:53 34.275954 -117.317656 123 13600ft 263kts
04-Jun-15 14:54 34.239197 -117.241348 122 13616ft 267kts
04-Jun-15 14:55 34.201902 -117.164037 122 13617ft 270kts
04-Jun-15 14:56 34.164015 -117.085703 122 13617ft 271kts
04-Jun-15 14:57 34.139298 -117.000663 111 13618ft 273kts
04-Jun-15 14:58 34.107609 -116.918845 120 13632ft 275kts
04-Jun-15 14:59 34.071088 -116.839487 122 13585ft 276kts
04-Jun-15 15:00 34.032282 -116.760037 121 13548ft 277kts
04-Jun-15 15:01 33.992908 -116.679642 118 13505ft 281kts
04-Jun-15 15:02 33.953132 -116.598481 116 13478ft 282kts
04-Jun-15 15:03 33.912981 -116.516827 116 13477ft 283kts
04-Jun-15 15:04 33.872878 -116.435404 116 13476ft 283kts
04-Jun-15 15:05 33.805854 -116.418166 209 13451ft 285kts
04-Jun-15 15:06 33.736002 -116.459161 202 13458ft 287kts
04-Jun-15 15:07 33.659132 -116.461431 159 13466ft 289kts
04-Jun-15 15:08 33.580542 -116.446670 179 13429ft 287kts
04-Jun-15 15:09 33.501143 -116.446995 182 13426ft 285kts
04-Jun-15 15:10 33.424024 -116.449789 182 13428ft 284kts
04-Jun-15 15:11 33.345677 -116.453230 184 13388ft 281kts
04-Jun-15 15:12 33.269424 -116.458542 185 11646ft 273kts
04-Jun-15 15:13 33.196886 -116.461334 183 10295ft 250kts
04-Jun-15 15:14 33.129601 -116.458308 175 8755ft 234kts
04-Jun-15 15:15 33.067670 -116.445965 167 7170ft 215kts
04-Jun-15 15:16 33.011153 -116.426375 161 5445ft 214kts
04-Jun-15 15:17 32.967575 -116.403700 122 3978ft 167kts
04-Jun-15 15:18 32.979768 -116.366624 299 3388ft 134kts
04-Jun-15 15:19 32.985188 -116.412676 276 3125ft 129kts
04-Jun-15 15:20 32.983673 -116.439180 128 2914ft 102kts
04-Jun-15 15:21 32.971975 -116.412134 117 1702ft 95kts
04-Jun-15 15:22 32.962635 -116.382778 91 2602ft 126kts
04-Jun-15 15:23 32.982591 -116.392184 275 3097ft 115kts
04-Jun-15 15:24 32.988691 -116.426556 284 2981ft 108kts
04-Jun-15 15:25 32.980215 -116.429718 128 2736ft 86kts
04-Jun-15 15:26 32.969854 -116.406268 112 1685ft 21kts
04-Jun-15 15:27 32.969490 -116.405858 139 1685ft 1kts
04-Jun-15 15:28 32.969503 -116.405546 40 1685ft 0kts
04-Jun-15 15:29 32.970872 -116.409286 277 1685ft 18kts

Navigation Log

Ident Type
Flight plan parsing failed, navigation log unavailable